Time;durP1;ratioP1;P1;durP2;ratioP2;P2;SDS_P1;SDS_P2;PMS_P1;PMS_P2;Temp;Humidity;BMP_temperature;BMP_pressure;BME280_temperature;BME280_humidity;BME280_pressure;Samples;Min_cycle;Max_cycle;Signal;HPM_P1;HPM_P2
2022/11/08 00:02:04;;;;;;;5.60;1.90;;;;;;;;;;5074536;28;20195;-91
2022/11/08 00:04:31;;;;;;;2.80;1.95;;;;;;;;;;5074151;28;20204;-90
2022/11/08 00:15:10;;;;;;;6.93;2.20;;;;;;;;;;5074005;28;20235;-83
2022/11/08 00:17:36;;;;;;;3.63;1.50;;;;;;;;;;5067016;28;20181;-90
2022/11/08 00:20:02;;;;;;;10.50;1.50;;;;;;;;;;5059455;28;20755;-90
2022/11/08 00:22:30;;;;;;;4.72;1.67;;;;;;;;;;5060266;28;20404;-89
2022/11/08 00:24:56;;;;;;;6.53;2.13;;;;;;;;;;5059943;28;20170;-86
2022/11/08 00:27:23;;;;;;;5.90;1.97;;;;;;;;;;5058536;28;20724;-86
2022/11/08 00:29:49;;;;;;;8.20;1.80;;;;;;;;;;5059358;28;20420;-89
2022/11/08 00:32:17;;;;;;;12.05;1.70;;;;;;;;;;5059625;28;20412;-89
2022/11/08 00:34:43;;;;;;;5.17;1.67;;;;;;;;;;5060316;28;20170;-89
2022/11/08 00:37:09;;;;;;;5.27;1.80;;;;;;;;;;5059459;28;20439;-89
2022/11/08 00:39:35;;;;;;;6.50;2.05;;;;;;;;;;5059206;28;20400;-88
2022/11/08 00:42:01;;;;;;;4.33;1.87;;;;;;;;;;5058544;28;20203;-89
2022/11/08 00:44:27;;;;;;;10.00;1.90;;;;;;;;;;5059120;28;20525;-90
2022/11/08 00:46:53;;;;;;;9.80;2.70;;;;;;;;;;5061528;28;20464;-88
2022/11/08 00:49:19;;;;;;;3.40;1.63;;;;;;;;;;5058074;28;20404;-88
2022/11/08 00:51:45;;;;;;;6.17;1.50;;;;;;;;;;5059956;28;20404;-89
2022/11/08 00:54:16;;;;;;;2.65;1.60;;;;;;;;;;5059049;28;20422;-88
2022/11/08 00:56:42;;;;;;;6.73;2.07;;;;;;;;;;5059019;28;20611;-90
2022/11/08 00:59:11;;;;;;;5.70;1.75;;;;;;;;;;5057582;28;20505;-88
2022/11/08 01:01:37;;;;;;;4.13;1.90;;;;;;;;;;5059233;28;20165;-91
2022/11/08 01:04:03;;;;;;;4.03;1.40;;;;;;;;;;5056665;28;20442;-89
2022/11/08 01:06:30;;;;;;;2.20;1.53;;;;;;;;;;5059239;28;20416;-88
2022/11/08 01:08:56;;;;;;;4.30;1.80;;;;;;;;;;5062270;28;20419;-89
2022/11/08 01:11:23;;;;;;;3.23;1.93;;;;;;;;;;5061698;28;20892;-89
2022/11/08 01:13:49;;;;;;;3.50;1.50;;;;;;;;;;5060016;28;20420;-89
2022/11/08 01:16:17;;;;;;;6.80;2.10;;;;;;;;;;5064303;28;20979;-89
2022/11/08 01:18:43;;;;;;;6.90;2.00;;;;;;;;;;5067926;28;20476;-90
2022/11/08 01:21:10;;;;;;;6.50;2.30;;;;;;;;;;5068338;28;20411;-91
2022/11/08 01:23:36;;;;;;;5.63;1.47;;;;;;;;;;5066900;28;20439;-90
2022/11/08 01:26:04;;;;;;;7.63;1.73;;;;;;;;;;5067759;28;20396;-90
2022/11/08 01:28:30;;;;;;;7.67;1.90;;;;;;;;;;5067775;28;20462;-87
2022/11/08 01:30:56;;;;;;;4.10;1.90;;;;;;;;;;5067998;28;20420;-90
2022/11/08 01:33:22;;;;;;;4.93;1.87;;;;;;;;;;5068273;28;20412;-90
2022/11/08 01:35:48;;;;;;;6.73;1.80;;;;;;;;;;5068158;28;20412;-90
2022/11/08 01:38:14;;;;;;;5.63;1.80;;;;;;;;;;5066030;28;20419;-89
2022/11/08 01:40:44;;;;;;;5.17;1.73;;;;;;;;;;5064634;28;20420;-89
2022/11/08 01:43:25;;;;;;;3.60;1.87;;;;;;;;;;5067158;28;20408;-89
2022/11/08 01:46:10;;;;;;;3.57;1.30;;;;;;;;;;5064129;28;20471;-90
2022/11/08 01:48:42;;;;;;;2.97;1.60;;;;;;;;;;5065194;28;20468;-89
2022/11/08 01:51:11;;;;;;;4.28;1.77;;;;;;;;;;5070195;28;20434;-87
2022/11/08 01:53:37;;;;;;;7.30;2.07;;;;;;;;;;5064677;28;20182;-91
2022/11/08 01:56:04;;;;;;;3.17;1.65;;;;;;;;;;5067141;28;20885;-88
2022/11/08 01:58:31;;;;;;;9.07;2.03;;;;;;;;;;5066178;28;20182;-89
2022/11/08 02:00:59;;;;;;;3.90;1.90;;;;;;;;;;5065612;28;20486;-90
2022/11/08 02:03:26;;;;;;;4.10;1.70;;;;;;;;;;5063895;28;20531;-90
2022/11/08 02:05:52;;;;;;;2.67;1.50;;;;;;;;;;5063647;28;20408;-90
2022/11/08 02:08:24;;;;;;;8.13;2.50;;;;;;;;;;5062909;28;20482;-82
2022/11/08 02:10:51;;;;;;;4.15;1.85;;;;;;;;;;5063381;28;20818;-91
2022/11/08 02:13:21;;;;;;;6.50;2.10;;;;;;;;;;5063695;28;20231;-84
2022/11/08 02:15:47;;;;;;;4.80;2.00;;;;;;;;;;5062241;28;20189;-89
2022/11/08 02:18:14;;;;;;;4.33;2.07;;;;;;;;;;5063498;28;20915;-89
2022/11/08 02:20:43;;;;;;;7.88;1.90;;;;;;;;;;5062248;28;20408;-90
2022/11/08 02:23:13;;;;;;;5.67;2.10;;;;;;;;;;5064620;28;20205;-90
2022/11/08 02:25:39;;;;;;;5.27;2.10;;;;;;;;;;5063442;28;20423;-88
2022/11/08 02:28:05;;;;;;;2.38;1.85;;;;;;;;;;5064097;28;20501;-90
2022/11/08 02:30:32;;;;;;;5.97;2.10;;;;;;;;;;5044270;28;20264;-90
2022/11/08 02:32:58;;;;;;;9.80;2.97;;;;;;;;;;5061516;28;20491;-90
2022/11/08 02:35:26;;;;;;;6.40;1.47;;;;;;;;;;5061692;28;20497;-89
2022/11/08 02:37:52;;;;;;;4.50;1.67;;;;;;;;;;5062791;28;20443;-89
2022/11/08 02:40:18;;;;;;;6.15;2.22;;;;;;;;;;5045163;28;20192;-90
2022/11/08 02:42:44;;;;;;;5.57;2.27;;;;;;;;;;5062859;28;20181;-90
2022/11/08 02:45:10;;;;;;;6.53;1.70;;;;;;;;;;5061637;28;20480;-90
2022/11/08 02:47:36;;;;;;;3.73;2.13;;;;;;;;;;5059500;28;20254;-90
2022/11/08 02:50:02;;;;;;;4.17;1.90;;;;;;;;;;5067588;28;20436;-89
2022/11/08 02:52:28;;;;;;;5.55;2.00;;;;;;;;;;5063296;28;20928;-91
2022/11/08 02:54:54;;;;;;;5.90;2.50;;;;;;;;;;5060775;28;20174;-88
2022/11/08 02:57:20;;;;;;;6.37;1.90;;;;;;;;;;5060043;28;20799;-83
2022/11/08 02:59:47;;;;;;;3.73;1.67;;;;;;;;;;5058389;28;20432;-88
2022/11/08 03:02:13;;;;;;;2.38;1.48;;;;;;;;;;5060008;28;20503;-88
2022/11/08 03:04:39;;;;;;;8.63;2.27;;;;;;;;;;5060746;28;20209;-89
2022/11/08 03:07:05;;;;;;;6.10;2.27;;;;;;;;;;5044468;28;20474;-90
2022/11/08 03:09:31;;;;;;;4.40;1.97;;;;;;;;;;5059822;28;20416;-90
2022/11/08 03:11:57;;;;;;;9.10;2.40;;;;;;;;;;5065366;28;20408;-90
2022/11/08 03:14:23;;;;;;;4.60;2.35;;;;;;;;;;5058099;28;20920;-90
2022/11/08 03:16:49;;;;;;;4.50;2.27;;;;;;;;;;5059875;28;20273;-89
2022/11/08 03:19:15;;;;;;;3.07;2.20;;;;;;;;;;5060180;28;20416;-92
2022/11/08 03:21:41;;;;;;;2.53;1.77;;;;;;;;;;5058812;28;20450;-91
2022/11/08 03:24:07;;;;;;;6.30;1.97;;;;;;;;;;5056785;28;20937;-92
2022/11/08 03:26:33;;;;;;;4.47;1.70;;;;;;;;;;5040097;28;20420;-91
2022/11/08 03:28:59;;;;;;;3.43;1.90;;;;;;;;;;5039574;28;20272;-90
2022/11/08 03:31:25;;;;;;;2.63;1.70;;;;;;;;;;5056382;28;20424;-88
2022/11/08 03:33:51;;;;;;;6.53;1.50;;;;;;;;;;5059159;28;20399;-91
2022/11/08 03:36:17;;;;;;;16.57;2.40;;;;;;;;;;5057678;28;20451;-91
2022/11/08 03:38:43;;;;;;;8.33;2.03;;;;;;;;;;5059807;28;20424;-92
2022/11/08 03:41:09;;;;;;;3.23;1.53;;;;;;;;;;5037709;28;20444;-89
2022/11/08 03:43:35;;;;;;;5.53;2.20;;;;;;;;;;5053941;28;20411;-87
2022/11/08 03:46:01;;;;;;;4.18;1.67;;;;;;;;;;5036494;28;20468;-91
2022/11/08 03:48:27;;;;;;;4.97;2.10;;;;;;;;;;5059898;28;20197;-92
2022/11/08 03:50:53;;;;;;;2.83;2.03;;;;;;;;;;5060538;28;20420;-90
2022/11/08 03:53:19;;;;;;;3.97;1.80;;;;;;;;;;5060533;28;20420;-92
2022/11/08 03:55:45;;;;;;;6.33;2.13;;;;;;;;;;5058591;28;20423;-91
2022/11/08 03:58:11;;;;;;;6.13;1.73;;;;;;;;;;5058982;28;20423;-89
2022/11/08 04:00:37;;;;;;;3.17;1.70;;;;;;;;;;5057751;28;20412;-91
2022/11/08 04:03:03;;;;;;;3.63;1.80;;;;;;;;;;5060717;28;20185;-90
2022/11/08 04:05:31;;;;;;;4.65;1.92;;;;;;;;;;5061479;28;20407;-89
2022/11/08 04:07:57;;;;;;;4.18;1.85;;;;;;;;;;5063633;28;20209;-91
2022/11/08 04:10:23;;;;;;;5.82;1.60;;;;;;;;;;5043767;28;20186;-91
2022/11/08 04:15:34;;;;;;;6.93;2.15;;;;;;;;;;5060361;28;20197;-91
2022/11/08 04:23:31;;;;;;;3.17;2.15;;;;;;;;;;5065207;28;20678;-88
2022/11/08 04:25:58;;;;;;;7.75;2.85;;;;;;;;;;5061911;28;20165;-90
2022/11/08 04:28:29;;;;;;;11.23;2.40;;;;;;;;;;5061855;28;20583;-90
2022/11/08 04:30:56;;;;;;;2.00;1.70;;;;;;;;;;5061231;28;20656;-89
2022/11/08 04:33:23;;;;;;;4.65;2.15;;;;;;;;;;5062802;28;20176;-89
2022/11/08 04:35:49;;;;;;;3.47;2.05;;;;;;;;;;5065198;28;20173;-90
2022/11/08 04:38:15;;;;;;;6.28;3.58;;;;;;;;;;5063307;28;20200;-88
2022/11/08 04:40:41;;;;;;;4.65;2.13;;;;;;;;;;5062295;28;20170;-91
2022/11/08 04:43:07;;;;;;;5.55;2.30;;;;;;;;;;5062612;28;20253;-91
2022/11/08 04:45:33;;;;;;;5.88;2.40;;;;;;;;;;5064704;28;20244;-91
2022/11/08 04:47:59;;;;;;;4.73;2.17;;;;;;;;;;5063710;28;20635;-90
2022/11/08 04:50:25;;;;;;;4.73;2.20;;;;;;;;;;5065989;28;20487;-91
2022/11/08 04:52:52;;;;;;;4.90;2.20;;;;;;;;;;5063663;28;20569;-90
2022/11/08 04:55:19;;;;;;;8.30;2.35;;;;;;;;;;5064648;28;20180;-89
2022/11/08 04:57:45;;;;;;;7.03;2.30;;;;;;;;;;5059687;28;20182;-91
2022/11/08 05:00:11;;;;;;;5.63;2.30;;;;;;;;;;5061541;28;20185;-92
2022/11/08 05:02:37;;;;;;;2.60;2.20;;;;;;;;;;5055378;28;20228;-89
2022/11/08 05:05:03;;;;;;;5.00;2.20;;;;;;;;;;5054759;28;20185;-91
2022/11/08 05:07:29;;;;;;;8.80;2.30;;;;;;;;;;5054751;28;20464;-91
2022/11/08 05:09:55;;;;;;;3.88;2.72;;;;;;;;;;5058781;28;20193;-91
2022/11/08 05:12:21;;;;;;;2.80;2.08;;;;;;;;;;5058646;28;20245;-91
2022/11/08 05:14:47;;;;;;;9.45;2.70;;;;;;;;;;5058967;28;20189;-92
2022/11/08 05:17:13;;;;;;;3.63;2.50;;;;;;;;;;5078027;28;20636;-90
2022/11/08 05:25:08;;;;;;;7.40;4.63;;;;;;;;;;5087277;28;20168;-88
2022/11/08 05:27:36;;;;;;;9.82;4.65;;;;;;;;;;5098955;28;20224;-88
2022/11/08 05:30:02;;;;;;;10.10;4.72;;;;;;;;;;5099261;28;20165;-87
2022/11/08 05:32:28;;;;;;;8.40;5.03;;;;;;;;;;5088321;28;20181;-91
2022/11/08 05:34:54;;;;;;;10.30;4.60;;;;;;;;;;5078664;28;20184;-91
2022/11/08 05:37:20;;;;;;;11.17;4.40;;;;;;;;;;5078878;28;20181;-92
2022/11/08 05:39:46;;;;;;;4.70;3.50;;;;;;;;;;5080183;28;20419;-91
2022/11/08 05:42:12;;;;;;;9.40;4.47;;;;;;;;;;5078554;28;21061;-91
2022/11/08 05:44:38;;;;;;;5.00;3.70;;;;;;;;;;5077272;28;20459;-89
2022/11/08 05:47:04;;;;;;;5.43;3.20;;;;;;;;;;5076371;28;20506;-92
2022/11/08 05:49:29;;;;;;;4.75;3.17;;;;;;;;;;5078423;28;20415;-86
2022/11/08 05:51:55;;;;;;;4.33;2.87;;;;;;;;;;5070876;28;20250;-92
2022/11/08 05:54:21;;;;;;;4.90;3.07;;;;;;;;;;5080129;28;20444;-91
2022/11/08 05:56:47;;;;;;;4.03;2.47;;;;;;;;;;5084471;28;20447;-90
2022/11/08 05:59:13;;;;;;;4.10;2.30;;;;;;;;;;5082236;28;20515;-90
2022/11/08 06:01:39;;;;;;;5.37;2.63;;;;;;;;;;5087471;28;20391;-88
2022/11/08 06:04:05;;;;;;;4.90;2.20;;;;;;;;;;5085897;28;20484;-91
2022/11/08 06:06:31;;;;;;;8.30;2.63;;;;;;;;;;5083288;28;20494;-84
2022/11/08 06:08:57;;;;;;;4.65;2.10;;;;;;;;;;5083656;28;20452;-90
2022/11/08 06:11:24;;;;;;;3.87;2.00;;;;;;;;;;5082957;28;20275;-90
2022/11/08 06:13:51;;;;;;;2.28;2.05;;;;;;;;;;5080510;28;20407;-88
2022/11/08 06:16:20;;;;;;;2.80;2.00;;;;;;;;;;5078968;28;20198;-91
2022/11/08 06:18:47;;;;;;;3.90;2.50;;;;;;;;;;5081354;28;20177;-89
2022/11/08 06:21:14;;;;;;;7.50;2.63;;;;;;;;;;5080159;28;20169;-90
2022/11/08 06:23:40;;;;;;;3.03;1.92;;;;;;;;;;5078713;28;20226;-90
2022/11/08 06:26:06;;;;;;;5.32;2.30;;;;;;;;;;5081285;28;20180;-92
2022/11/08 06:28:33;;;;;;;6.20;2.50;;;;;;;;;;5079068;28;20208;-83
2022/11/08 06:30:59;;;;;;;4.32;2.20;;;;;;;;;;5082445;28;20177;-91
2022/11/08 06:33:25;;;;;;;6.15;3.42;;;;;;;;;;5080464;28;20192;-90
2022/11/08 06:35:51;;;;;;;7.57;3.17;;;;;;;;;;5079919;28;20181;-91
2022/11/08 06:38:17;;;;;;;4.90;3.00;;;;;;;;;;5079945;28;20411;-89
2022/11/08 06:40:43;;;;;;;8.00;2.95;;;;;;;;;;5080710;28;20175;-91
2022/11/08 06:43:13;;;;;;;5.85;2.72;;;;;;;;;;5081388;28;20199;-89
2022/11/08 06:45:39;;;;;;;5.85;2.70;;;;;;;;;;5079104;28;20229;-91
2022/11/08 06:48:06;;;;;;;7.25;2.70;;;;;;;;;;5080340;28;20212;-89
2022/11/08 06:50:33;;;;;;;7.13;2.63;;;;;;;;;;5081840;28;20653;-88
2022/11/08 06:53:03;;;;;;;7.43;3.30;;;;;;;;;;5078145;28;20177;-92
2022/11/08 06:55:29;;;;;;;6.05;3.00;;;;;;;;;;5080261;28;20165;-90
2022/11/08 06:57:56;;;;;;;3.43;2.27;;;;;;;;;;5079941;28;20252;-89
2022/11/08 07:00:22;;;;;;;4.22;2.00;;;;;;;;;;5079186;28;20457;-90
2022/11/08 07:02:55;;;;;;;7.10;2.75;;;;;;;;;;5080537;28;20176;-89
2022/11/08 07:05:21;;;;;;;4.55;2.45;;;;;;;;;;5077124;28;20184;-91
2022/11/08 07:07:51;;;;;;;4.30;2.20;;;;;;;;;;5077242;28;20269;-91
2022/11/08 07:10:21;;;;;;;4.78;2.42;;;;;;;;;;5060799;28;20184;-92
2022/11/08 07:12:49;;;;;;;6.82;2.55;;;;;;;;;;5077505;28;20168;-90
2022/11/08 07:15:15;;;;;;;3.17;2.88;;;;;;;;;;5077925;28;20519;-90
2022/11/08 07:17:41;;;;;;;3.10;1.90;;;;;;;;;;5080207;28;20605;-91
2022/11/08 07:20:08;;;;;;;7.47;2.00;;;;;;;;;;5076794;28;20184;-91
2022/11/08 07:22:34;;;;;;;4.70;2.22;;;;;;;;;;5076170;28;20414;-91
2022/11/08 07:25:00;;;;;;;4.95;2.10;;;;;;;;;;5073017;28;20222;-87
2022/11/08 07:27:26;;;;;;;6.28;2.40;;;;;;;;;;5073196;28;20192;-90
2022/11/08 07:29:52;;;;;;;2.78;2.05;;;;;;;;;;5071454;28;20188;-82
2022/11/08 07:32:18;;;;;;;4.50;1.90;;;;;;;;;;5072351;28;20211;-83
2022/11/08 07:34:44;;;;;;;2.50;1.93;;;;;;;;;;5072584;28;20430;-82
2022/11/08 07:37:10;;;;;;;7.05;2.65;;;;;;;;;;5073020;28;20414;-83
2022/11/08 07:39:36;;;;;;;1.93;1.57;;;;;;;;;;5053707;28;20273;-83
2022/11/08 07:42:02;;;;;;;4.03;2.10;;;;;;;;;;5048786;28;20420;-82
2022/11/08 07:44:28;;;;;;;6.07;2.33;;;;;;;;;;5052519;28;20470;-83
2022/11/08 07:46:55;;;;;;;3.40;1.80;;;;;;;;;;5052737;28;20180;-84
2022/11/08 07:49:21;;;;;;;4.32;2.15;;;;;;;;;;5052371;28;20246;-84
2022/11/08 07:51:47;;;;;;;6.40;2.23;;;;;;;;;;5052175;28;20279;-83
2022/11/08 07:54:13;;;;;;;4.35;1.92;;;;;;;;;;5051542;28;20428;-83
2022/11/08 07:56:39;;;;;;;2.60;1.80;;;;;;;;;;5035681;28;20640;-85
2022/11/08 07:59:05;;;;;;;4.20;2.30;;;;;;;;;;5052217;28;20423;-83
2022/11/08 08:01:31;;;;;;;6.03;1.90;;;;;;;;;;5052462;28;20511;-86
2022/11/08 08:03:57;;;;;;;5.20;1.48;;;;;;;;;;5052400;28;20416;-84
2022/11/08 08:06:23;;;;;;;2.97;1.67;;;;;;;;;;5035415;28;20596;-87
2022/11/08 08:08:49;;;;;;;3.97;1.57;;;;;;;;;;5051856;28;20470;-85
2022/11/08 08:11:15;;;;;;;3.58;1.58;;;;;;;;;;5052425;28;20426;-84
2022/11/08 08:13:41;;;;;;;4.22;1.70;;;;;;;;;;5053018;28;20268;-86
2022/11/08 08:16:08;;;;;;;7.37;1.70;;;;;;;;;;5052073;28;20189;-86
2022/11/08 08:18:34;;;;;;;6.70;2.23;;;;;;;;;;5055338;28;20400;-85
2022/11/08 08:21:00;;;;;;;6.07;2.08;;;;;;;;;;5055603;28;20424;-85
2022/11/08 08:23:26;;;;;;;2.50;1.80;;;;;;;;;;5055910;28;20261;-85
2022/11/08 08:25:52;;;;;;;3.63;1.47;;;;;;;;;;5055537;28;20550;-85
2022/11/08 08:28:18;;;;;;;2.10;1.50;;;;;;;;;;5056980;28;20458;-86
2022/11/08 08:30:44;;;;;;;4.90;1.80;;;;;;;;;;5039144;28;20420;-85
2022/11/08 08:33:11;;;;;;;4.00;1.93;;;;;;;;;;5038753;28;20420;-85
2022/11/08 08:35:38;;;;;;;2.03;1.60;;;;;;;;;;5055986;28;20764;-86
2022/11/08 08:38:04;;;;;;;3.57;1.90;;;;;;;;;;5055949;28;20488;-87
2022/11/08 08:40:30;;;;;;;1.43;1.20;;;;;;;;;;5039084;28;20424;-87
2022/11/08 08:43:00;;;;;;;9.23;1.60;;;;;;;;;;5055162;28;20416;-87
2022/11/08 08:45:29;;;;;;;8.30;1.80;;;;;;;;;;5055496;28;21038;-87
2022/11/08 08:47:56;;;;;;;4.13;1.43;;;;;;;;;;5055090;28;20465;-86
2022/11/08 08:50:22;;;;;;;3.63;3.23;;;;;;;;;;5055370;28;20451;-87
2022/11/08 08:52:48;;;;;;;3.40;2.00;;;;;;;;;;5055130;28;20416;-87
2022/11/08 08:55:15;;;;;;;3.60;1.50;;;;;;;;;;5055239;28;20412;-87
2022/11/08 08:57:45;;;;;;;1.83;1.43;;;;;;;;;;5055216;28;20423;-84
2022/11/08 09:00:11;;;;;;;2.30;1.80;;;;;;;;;;5056362;28;20407;-89
2022/11/08 09:02:37;;;;;;;4.20;2.70;;;;;;;;;;5055341;28;20427;-87
2022/11/08 09:05:03;;;;;;;2.40;1.83;;;;;;;;;;5054684;28;20416;-87
2022/11/08 09:07:29;;;;;;;3.43;2.43;;;;;;;;;;5038517;28;20460;-85
2022/11/08 09:09:55;;;;;;;3.77;2.30;;;;;;;;;;5054882;28;20420;-86
2022/11/08 09:12:22;;;;;;;3.80;3.17;;;;;;;;;;5056176;28;20396;-86
2022/11/08 09:14:48;;;;;;;2.60;2.20;;;;;;;;;;5055072;28;20423;-87
2022/11/08 09:17:14;;;;;;;4.67;2.10;;;;;;;;;;5055030;28;20438;-87
2022/11/08 09:19:40;;;;;;;2.17;1.80;;;;;;;;;;5054787;28;20400;-86
2022/11/08 09:22:06;;;;;;;2.77;1.93;;;;;;;;;;5054581;28;20419;-86
2022/11/08 09:24:33;;;;;;;3.43;2.00;;;;;;;;;;5055943;28;20426;-86
2022/11/08 09:27:02;;;;;;;2.70;1.97;;;;;;;;;;5054265;28;20459;-86
2022/11/08 09:29:29;;;;;;;3.73;1.70;;;;;;;;;;5054224;28;20836;-87
2022/11/08 09:31:55;;;;;;;2.10;1.50;;;;;;;;;;5055236;28;20770;-86
2022/11/08 09:34:21;;;;;;;2.00;1.50;;;;;;;;;;5054489;28;20534;-87
2022/11/08 09:36:47;;;;;;;1.70;1.50;;;;;;;;;;5037821;28;20428;-86
2022/11/08 09:39:13;;;;;;;1.97;1.73;;;;;;;;;;5054487;28;20515;-87
2022/11/08 09:42:02;;;;;;;4.00;1.60;;;;;;;;;;5037388;28;20412;-87
2022/11/08 09:44:47;;;;;;;1.77;1.27;;;;;;;;;;5055118;28;20471;-87
2022/11/08 09:47:18;;;;;;;3.77;1.37;;;;;;;;;;5054210;28;20966;-84
2022/11/08 09:49:46;;;;;;;4.80;1.70;;;;;;;;;;5054935;28;20401;-85
2022/11/08 09:52:20;;;;;;;2.00;1.23;;;;;;;;;;5054735;28;20419;-87
2022/11/08 09:54:46;;;;;;;1.73;1.47;;;;;;;;;;5055150;28;20381;-86
2022/11/08 09:57:19;;;;;;;1.80;1.60;;;;;;;;;;5054020;28;20420;-87
2022/11/08 09:59:48;;;;;;;1.50;1.20;;;;;;;;;;5054852;28;20744;-86
2022/11/08 10:02:22;;;;;;;2.87;1.30;;;;;;;;;;5055214;28;20404;-87
2022/11/08 10:04:59;;;;;;;1.90;1.33;;;;;;;;;;5053735;28;20461;-86
2022/11/08 10:07:44;;;;;;;1.80;1.57;;;;;;;;;;5055393;28;20444;-88
2022/11/08 10:10:28;;;;;;;2.43;1.30;;;;;;;;;;5053804;28;20407;-87
2022/11/08 10:12:54;;;;;;;3.70;1.60;;;;;;;;;;5053649;28;20412;-87
2022/11/08 10:15:33;;;;;;;4.13;1.30;;;;;;;;;;5054950;28;20421;-86
2022/11/08 10:18:06;;;;;;;2.23;1.63;;;14.20;99.90;;;;;;5053310;28;20408;-85
2022/11/08 10:20:52;;;;;;;2.67;1.30;;;14.20;99.90;;;;;;5054636;28;20431;-87
2022/11/08 10:23:24;;;;;;;5.60;2.03;;;14.20;99.90;;;;;;5055147;28;20404;-87
2022/11/08 10:25:54;;;;;;;1.90;1.40;;;14.30;99.90;;;;;;5054577;28;20757;-87
2022/11/08 10:28:25;;;;;;;5.10;2.07;;;14.40;99.90;;;;;;5053938;28;20472;-87
2022/11/08 10:30:52;;;;;;;2.30;1.60;;;14.50;99.90;;;;;;5054466;28;20397;-86
2022/11/08 10:33:27;;;;;;;2.50;1.60;;;14.50;99.90;;;;;;5055020;28;20868;-89
2022/11/08 10:36:05;;;;;;;4.13;2.03;;;14.60;99.90;;;;;;5054638;28;20438;-88
2022/11/08 10:38:38;;;;;;;5.57;2.00;;;14.70;99.90;;;;;;5053938;28;20923;-88
2022/11/08 10:41:14;;;;;;;5.60;1.83;;;14.70;99.90;;;;;;5053564;28;20718;-86
2022/11/08 10:43:54;;;;;;;4.27;2.00;;;14.70;99.90;;;;;;5055756;28;20379;-87
2022/11/08 10:46:45;;;;;;;2.20;1.87;;;14.80;99.90;;;;;;5054941;28;20451;-88
2022/11/08 10:49:17;;;;;;;2.87;1.60;;;14.90;99.90;;;;;;5053002;28;20835;-86
2022/11/08 10:51:44;;;;;;;2.30;1.37;;;15.00;99.90;;;;;;5053218;28;20499;-87
2022/11/08 10:54:38;;;;;;;4.10;1.80;;;15.20;99.90;;;;;;5052927;28;20477;-86
2022/11/08 10:57:04;;;;;;;2.27;1.80;;;15.40;99.90;;;;;;5052598;28;20420;-87
2022/11/08 10:59:31;;;;;;;2.90;1.63;;;15.50;99.90;;;;;;5020310;28;20406;-86
2022/11/08 11:01:57;;;;;;;9.40;2.40;;;15.60;99.90;;;;;;5054891;28;20185;-87
2022/11/08 11:04:29;;;;;;;2.53;1.90;;;15.70;99.90;;;;;;5055848;28;20394;-87
2022/11/08 11:07:03;;;;;;;2.20;1.80;;;15.80;99.90;;;;;;5053955;28;20419;-86
2022/11/08 11:09:29;;;;;;;3.77;1.70;;;16.10;99.90;;;;;;5053069;28;20430;-86
2022/11/08 11:12:07;;;;;;;1.83;1.40;;;16.60;99.90;;;;;;5052975;28;20762;-86
2022/11/08 11:14:32;;;;;;;2.27;1.50;;;16.90;99.90;;;;;;5056325;28;20189;-86
2022/11/08 11:17:14;;;;;;;2.77;1.63;;;17.00;99.90;;;;;;5035982;28;20411;-86
2022/11/08 11:19:52;;;;;;;2.47;1.63;;;17.30;99.90;;;;;;5052960;28;20271;-86
2022/11/08 11:22:27;;;;;;;4.03;1.30;;;17.70;99.90;;;;;;5052703;28;20462;-87
2022/11/08 11:24:54;;;;;;;1.40;1.30;;;18.20;99.90;;;;;;5052925;28;20419;-87
2022/11/08 11:27:43;;;;;;;2.57;1.43;;;18.20;99.90;;;;;;5036060;28;20463;-88
2022/11/08 11:30:11;;;;;;;5.17;1.50;;;17.90;99.90;;;;;;5051480;28;20457;-87
2022/11/08 11:32:38;;;;;;;3.50;1.50;;;17.80;99.90;;;;;;5054364;28;20424;-87
2022/11/08 11:35:06;;;;;;;2.70;1.57;;;17.80;99.90;;;;;;5052083;28;20398;-87
2022/11/08 11:37:39;;;;;;;4.07;1.73;;;17.80;99.90;;;;;;5053514;28;20936;-87
2022/11/08 11:40:32;;;;;;;2.97;1.37;;;17.80;99.90;;;;;;5051763;28;20431;-87
2022/11/08 11:43:12;;;;;;;3.83;1.60;;;17.90;99.90;;;;;;5053284;28;20412;-87
2022/11/08 11:46:12;;;;;;;4.27;1.50;;;17.90;99.90;;;;;;5053570;28;20438;-86
2022/11/08 11:48:57;;;;;;;3.60;2.03;;;17.80;99.90;;;;;;5054942;28;20521;-87
2022/11/08 11:51:26;;;;;;;2.23;1.50;;;17.80;99.90;;;;;;5054950;28;20390;-86
2022/11/08 11:53:52;;;;;;;1.97;1.50;;;17.80;99.90;;;;;;5052083;28;20427;-86
2022/11/08 11:56:52;;;;;;;3.40;1.83;;;17.80;99.90;;;;;;5051984;28;20408;-87
2022/11/08 11:59:28;;;;;;;1.80;1.40;;;17.90;99.90;;;;;;5052140;28;20204;-87
2022/11/08 12:01:54;;;;;;;2.20;1.53;;;18.00;99.90;;;;;;5051898;28;20391;-88
2022/11/08 12:04:31;;;;;;;3.70;1.63;;;18.10;99.90;;;;;;5051855;28;20452;-87
2022/11/08 12:07:18;;;;;;;2.27;1.60;;;18.10;99.90;;;;;;5052881;28;20172;-87
2022/11/08 12:09:56;;;;;;;1.73;1.63;;;18.00;99.90;;;;;;5051969;28;20836;-87
2022/11/08 12:12:35;;;;;;;5.80;2.00;;;18.10;99.90;;;;;;5051930;28;20447;-88
2022/11/08 12:15:16;;;;;;;2.47;1.37;;;18.20;99.90;;;;;;5052469;28;20399;-88
2022/11/08 12:18:14;;;;;;;2.77;1.50;;;18.20;99.90;;;;;;5051884;28;20909;-87
2022/11/08 12:20:39;;;;;;;3.53;1.20;;;18.20;99.90;;;;;;5054989;28;20436;-87
2022/11/08 12:23:37;;;;;;;1.50;1.40;;;18.20;99.90;;;;;;5056599;28;20382;-87
2022/11/08 12:26:05;;;;;;;3.37;1.57;;;18.10;99.90;;;;;;5053900;28;20166;-87
2022/11/08 12:28:37;;;;;;;2.67;1.43;;;18.30;99.90;;;;;;5053612;28;20441;-87
2022/11/08 12:31:14;;;;;;;2.50;1.57;;;18.40;99.90;;;;;;5051532;28;20459;-86
2022/11/08 12:33:59;;;;;;;3.00;1.60;;;18.40;99.90;;;;;;5052543;28;20370;-87
2022/11/08 12:36:35;;;;;;;2.20;1.37;;;18.40;99.90;;;;;;5051564;28;20391;-86
2022/11/08 12:39:36;;;;;;;3.20;1.53;;;18.50;99.90;;;;;;5051495;28;20413;-87
2022/11/08 12:42:23;;;;;;;2.97;1.57;;;18.30;99.90;;;;;;5052638;28;20412;-87
2022/11/08 12:45:17;;;;;;;2.93;1.67;;;18.30;99.90;;;;;;5051219;28;20475;-87
2022/11/08 12:48:16;;;;;;;5.00;1.37;;;18.20;99.90;;;;;;5050536;28;20459;-87
2022/11/08 12:50:48;;;;;;;4.27;1.43;;;18.30;99.90;;;;;;5050430;28;20428;-87
2022/11/08 12:53:57;;;;;;;1.67;1.17;;;18.20;99.90;;;;;;5052073;28;20451;-87
2022/11/08 12:56:43;;;;;;;4.13;1.77;;;18.20;99.90;;;;;;5059382;28;20394;-87
2022/11/08 12:59:24;;;;;;;3.00;1.70;;;18.20;99.90;;;;;;5068776;28;20423;-87
2022/11/08 13:01:51;;;;;;;2.83;1.27;;;18.20;99.90;;;;;;5062471;28;20386;-87
2022/11/08 13:04:35;;;;;;;3.40;1.50;;;18.30;99.90;;;;;;5046545;28;20423;-87
2022/11/08 13:07:17;;;;;;;3.53;1.50;;;18.30;99.90;;;;;;5056388;28;20440;-87
2022/11/08 13:09:58;;;;;;;2.40;1.63;;;18.30;99.90;;;;;;5057554;28;20404;-86
2022/11/08 13:13:08;;;;;;;2.20;1.50;;;18.40;99.90;;;;;;5056748;28;20404;-89
2022/11/08 13:15:34;;;;;;;6.20;1.43;;;18.30;99.90;;;;;;5045515;28;20454;-86
2022/11/08 13:18:05;;;;;;;6.10;1.70;;;18.40;99.90;;;;;;5055307;28;20882;-86
2022/11/08 13:20:45;;;;;;;1.87;1.20;;;18.50;99.90;;;;;;5056651;28;20181;-86
2022/11/08 13:23:27;;;;;;;2.13;1.20;;;18.50;99.90;;;;;;5056075;28;20392;-86
2022/11/08 13:25:54;;;;;;;5.50;1.93;;;18.50;99.90;;;;;;5054776;28;20405;-86
2022/11/08 13:28:34;;;;;;;2.97;1.53;;;18.60;99.90;;;;;;5054257;28;20495;-86
2022/11/08 13:31:22;;;;;;;2.10;1.47;;;18.60;99.90;;;;;;5054022;28;20443;-85
2022/11/08 13:34:10;;;;;;;1.47;1.30;;;18.60;99.90;;;;;;5027819;28;20412;-87
2022/11/08 13:36:42;;;;;;;2.20;1.30;;;18.60;99.90;;;;;;5029888;28;20399;-86
2022/11/08 13:39:40;;;;;;;2.73;1.20;;;18.50;99.90;;;;;;5048872;28;20753;-87
2022/11/08 13:42:15;;;;;;;2.90;1.80;;;18.60;99.90;;;;;;5055450;28;20383;-87
2022/11/08 13:44:58;;;;;;;1.93;1.20;;;18.70;99.90;;;;;;5053933;28;20482;-87
2022/11/08 13:47:33;;;;;;;1.60;1.40;;;18.70;99.90;;;;;;5054252;28;20536;-87
2022/11/08 13:50:32;;;;;;;5.33;2.10;;;18.90;99.90;;;;;;5053832;28;20429;-86
2022/11/08 13:53:09;;;;;;;2.07;1.20;;;18.90;99.90;;;;;;5053957;28;20420;-86
2022/11/08 13:55:41;;;;;;;2.53;1.30;;;18.90;99.90;;;;;;5054098;28;20428;-87
2022/11/08 13:58:28;;;;;;;3.97;1.17;;;18.70;99.90;;;;;;5054611;28;20750;-86
2022/11/08 14:00:55;;;;;;;9.47;1.47;;;18.60;99.90;;;;;;5056018;28;20424;-87
2022/11/08 14:03:33;;;;;;;1.93;1.40;;;18.50;99.90;;;;;;5054793;28;20435;-87
2022/11/08 14:06:04;;;;;;;3.00;1.30;;;18.50;99.90;;;;;;5054550;28;20420;-86
2022/11/08 14:08:52;;;;;;;3.17;1.50;;;18.50;99.90;;;;;;5057366;28;20463;-84
2022/11/08 14:11:42;;;;;;;1.20;1.10;;;18.50;99.90;;;;;;5053538;28;20399;-86
2022/11/08 14:14:13;;;;;;;3.27;1.57;;;18.30;99.90;;;;;;5055540;28;20436;-88
2022/11/08 14:17:04;;;;;;;1.57;1.00;;;18.30;99.90;;;;;;5053589;28;20430;-86
2022/11/08 14:19:31;;;;;;;1.20;1.10;;;18.10;99.90;;;;;;5056041;28;20438;-87
2022/11/08 14:22:00;;;;;;;3.63;1.60;;;18.10;99.90;;;;;;5053565;28;20481;-87
2022/11/08 14:24:34;;;;;;;1.30;1.20;;;18.00;99.90;;;;;;5053404;28;20402;-87
2022/11/08 14:27:01;;;;;;;1.73;1.20;;;17.90;99.90;;;;;;5051447;28;20488;-86
2022/11/08 14:29:26;;;;;;;5.93;1.57;;;17.80;99.90;;;;;;5050741;28;20474;-87
2022/11/08 14:32:15;;;;;;;2.53;1.27;;;17.80;99.90;;;;;;5053536;28;20416;-88
2022/11/08 14:34:42;;;;;;;4.23;1.57;;;17.70;99.90;;;;;;5053426;28;20575;-87
2022/11/08 14:37:22;;;;;;;1.93;1.33;;;17.70;99.90;;;;;;5055503;28;20379;-88
2022/11/08 14:39:49;;;;;;;2.80;1.40;;;17.60;99.90;;;;;;5054685;28;20392;-87
2022/11/08 14:42:25;;;;;;;4.97;1.63;;;17.50;99.90;;;;;;5047253;28;20503;-86
2022/11/08 14:44:56;;;;;;;1.50;1.07;;;17.40;99.90;;;;;;5031661;28;20834;-87